createdAt,value
2018-12-19T00:00:28.034Z,76.7
2018-12-19T00:01:27.948Z,76.8
2018-12-19T00:02:27.830Z,76.8
2018-12-19T00:03:27.732Z,77
2018-12-19T00:04:27.665Z,76.9
2018-12-19T00:05:27.985Z,76.9
2018-12-19T00:06:27.861Z,75.2
2018-12-19T00:15:26.778Z,71.8
2018-12-19T00:16:26.672Z,72.4
2018-12-19T00:17:26.551Z,72.5
2018-12-19T00:18:26.442Z,72.7
2018-12-19T00:19:26.357Z,73.1
2018-12-19T00:20:26.235Z,73.8
2018-12-19T00:21:26.153Z,74.8
2018-12-19T00:22:26.276Z,75.3
2018-12-19T00:23:26.203Z,75.6
2018-12-19T00:24:26.092Z,75.8
2018-12-19T00:25:26.429Z,76
2018-12-19T00:26:26.358Z,76.4
2018-12-19T00:27:26.240Z,76.8
2018-12-19T00:28:26.138Z,76.9
2018-12-19T00:29:26.038Z,77.2
2018-12-19T00:30:25.949Z,77.3
2018-12-19T00:31:25.861Z,77.5
2018-12-19T00:32:25.784Z,77.6
2018-12-19T00:33:25.678Z,77.6
2018-12-19T00:34:25.571Z,77.8
2018-12-19T00:35:25.946Z,77.9
2018-12-19T00:36:25.839Z,78.1
2018-12-19T00:37:25.723Z,78
2018-12-19T00:38:25.655Z,78.1
2018-12-19T00:39:25.549Z,78.3
2018-12-19T00:40:25.453Z,78.1
2018-12-19T00:41:25.339Z,78.1
2018-12-19T00:42:25.221Z,78.2
2018-12-19T00:43:26.119Z,78.2
2018-12-19T00:44:26.025Z,78.2
2018-12-19T00:45:26.369Z,78.4
2018-12-19T00:46:26.264Z,78
2018-12-19T01:55:21.441Z,73
2018-12-19T01:56:21.336Z,73.9
2018-12-19T01:57:21.221Z,74.3
2018-12-19T01:58:21.132Z,74.4
2018-12-19T01:59:21.046Z,74.3
2018-12-19T02:00:20.946Z,74.5
2018-12-19T02:01:21.881Z,74.5
2018-12-19T02:02:21.754Z,74.5
2018-12-19T02:03:21.644Z,74.7
2018-12-19T02:04:21.530Z,75.4
2018-12-19T02:05:22.076Z,74.5
2018-12-19T02:06:21.985Z,74.4
2018-12-19T02:07:21.880Z,74.5
2018-12-19T02:08:21.782Z,72.8
2018-12-19T02:09:21.672Z,73.3
2018-12-19T02:10:21.582Z,71.9
2018-12-19T02:11:21.541Z,70.8
2018-12-19T02:12:21.440Z,70.7
2018-12-19T02:13:21.346Z,70.4
2018-12-19T02:14:21.242Z,70.4
2018-12-19T02:15:21.808Z,69.7
2018-12-19T02:16:21.684Z,69.4
2018-12-19T02:17:21.614Z,69.4
2018-12-19T02:18:21.506Z,69
2018-12-19T02:19:21.399Z,68.2
2018-12-19T02:20:21.279Z,68.2
2018-12-19T02:21:21.178Z,68.4
2018-12-19T02:22:21.084Z,68.3
2018-12-19T02:23:21.023Z,68.5
2018-12-19T02:24:20.913Z,68.7
2018-12-19T02:25:21.247Z,68.3
2018-12-19T02:26:21.134Z,67.9
2018-12-19T02:35:19.606Z,63.4
2018-12-19T02:36:20.201Z,63.7
2018-12-19T02:37:20.103Z,63.7
2018-12-19T02:38:20.008Z,63.8
2018-12-19T02:39:19.931Z,63.6
2018-12-19T02:40:19.837Z,64.3
2018-12-19T02:41:19.728Z,64.7
2018-12-19T02:42:19.617Z,65.4
2018-12-19T02:43:19.597Z,66.1
2018-12-19T02:44:20.529Z,67
2018-12-19T02:45:20.965Z,67.9
2018-12-19T02:46:20.846Z,68.9
2018-12-19T02:47:21.039Z,69.6
2018-12-19T02:48:20.932Z,70.4
2018-12-19T02:49:20.806Z,71.4
2018-12-19T02:50:20.682Z,72.4
2018-12-19T02:51:20.556Z,73.3
2018-12-19T02:52:20.446Z,73.8
2018-12-19T02:53:20.560Z,74
2018-12-19T02:54:20.504Z,74.3
2018-12-19T02:55:23.999Z,74.5
2018-12-19T02:56:23.890Z,75
2018-12-19T03:25:21.386Z,72.3
2018-12-19T03:26:24.010Z,73.1
2018-12-19T03:27:24.922Z,73.6
2018-12-19T03:28:24.814Z,74.2
2018-12-19T03:29:24.701Z,74.5
2018-12-19T03:30:24.614Z,74.6
2018-12-19T03:31:24.533Z,74.6
2018-12-19T03:32:24.467Z,74.6
2018-12-19T03:33:24.360Z,74.4
2018-12-19T03:34:24.272Z,74.5
2018-12-19T03:35:28.153Z,74.6
2018-12-19T03:36:28.052Z,74.7
2018-12-19T03:37:28.004Z,74.8
2018-12-19T03:38:27.921Z,74.9
2018-12-19T03:39:27.855Z,75.3
2018-12-19T03:40:27.769Z,75.6
2018-12-19T03:41:27.915Z,75.6
2018-12-19T03:42:27.808Z,75.7
2018-12-19T03:43:27.726Z,75.6
2018-12-19T03:44:30.634Z,75.7
2018-12-19T03:45:31.256Z,75
2018-12-19T03:46:31.152Z,75.7
2018-12-19T03:47:31.056Z,75.8
2018-12-19T03:48:30.986Z,75.7
2018-12-19T03:49:30.872Z,75.8
2018-12-19T03:50:30.773Z,76
2018-12-19T03:51:30.662Z,75.9
2018-12-19T03:52:30.556Z,76.5
2018-12-19T03:53:30.471Z,75.7
2018-12-19T03:54:30.388Z,75.6
2018-12-19T03:55:30.913Z,74.8
2018-12-19T03:56:30.802Z,74.4
2018-12-19T03:57:30.688Z,73.3
2018-12-19T04:05:29.517Z,69.7
2018-12-19T04:06:29.396Z,70.3
2018-12-19T04:07:29.288Z,70.8
2018-12-19T04:08:29.201Z,70.9
2018-12-19T04:09:29.135Z,71.2
2018-12-19T04:10:29.301Z,71.6
2018-12-19T04:11:29.193Z,71.7
2018-12-19T04:12:29.087Z,71.7
2018-12-19T04:13:28.980Z,71.8
2018-12-19T04:14:29.104Z,72.1
2018-12-19T04:15:29.445Z,72.3
2018-12-19T04:16:29.352Z,71
2018-12-19T04:17:29.259Z,70.2
2018-12-19T04:18:29.157Z,69.8
2018-12-19T04:21:28.541Z,67.5
2018-12-19T04:25:28.102Z,67.4
2018-12-19T04:26:28.070Z,68
2018-12-19T04:27:27.949Z,69
2018-12-19T04:28:27.847Z,69.6
2018-12-19T04:29:27.763Z,69.7
2018-12-19T04:30:27.659Z,69.7
2018-12-19T04:31:27.619Z,70.2
2018-12-19T04:32:27.511Z,70.7
2018-12-19T04:33:27.410Z,70.8
2018-12-19T04:34:27.304Z,70.9
2018-12-19T04:35:27.647Z,71.2
2018-12-19T04:36:27.674Z,71.3
2018-12-19T04:37:28.853Z,70.4
2018-12-19T04:38:28.741Z,70.2
2018-12-19T04:39:28.620Z,69.9
2018-12-19T04:40:28.523Z,69.2
2018-12-19T04:41:28.408Z,68.3
2018-12-19T04:42:28.314Z,68.9
2018-12-19T04:43:28.223Z,68.9
2018-12-19T04:44:28.390Z,68.7
2018-12-19T04:45:28.733Z,68.2
2018-12-19T04:46:28.639Z,69
2018-12-19T04:47:29.833Z,67.7
2018-12-19T04:48:29.734Z,67.3
2018-12-19T04:49:29.620Z,66.7
2018-12-19T04:50:29.566Z,65.7
2018-12-19T04:51:29.752Z,65
2018-12-19T04:52:29.633Z,65.8
2018-12-19T04:53:29.552Z,64.9
2018-12-19T04:54:29.471Z,64.6
2018-12-19T04:55:29.813Z,64.9
2018-12-19T04:56:29.728Z,64.3
2018-12-19T04:57:29.647Z,64.7
2018-12-19T04:58:29.557Z,64.8
2018-12-19T04:59:29.458Z,64.9
2018-12-19T05:00:29.349Z,65.2
2018-12-19T05:01:29.237Z,65.1
2018-12-19T05:02:29.145Z,64.7
2018-12-19T05:03:29.086Z,64.9
2018-12-19T05:04:28.972Z,64.6
2018-12-19T05:05:29.400Z,64.7
2018-12-19T05:06:29.315Z,65
2018-12-19T05:07:29.230Z,65.3
2018-12-19T05:08:29.126Z,65
2018-12-19T05:09:29.263Z,65.2
2018-12-19T05:10:29.158Z,65.4
2018-12-19T05:11:29.127Z,65.8
2018-12-19T05:12:29.038Z,66.2
2018-12-19T05:13:28.931Z,66
2018-12-19T05:14:28.892Z,66.5
2018-12-19T05:15:29.190Z,66.4
2018-12-19T05:16:29.078Z,66
2018-12-19T05:17:28.985Z,65.9
2018-12-19T05:18:28.866Z,65.8
2018-12-19T05:19:28.794Z,66.1
2018-12-19T05:20:28.674Z,66.3
2018-12-19T05:21:28.793Z,65.4
2018-12-19T05:22:28.683Z,65.1
2018-12-19T05:23:28.562Z,65.3
2018-12-19T05:24:28.489Z,65.7
2018-12-19T05:25:28.854Z,65.4
2018-12-19T05:26:28.734Z,65.4
2018-12-19T05:27:28.631Z,65.2
2018-12-19T05:28:28.526Z,65.2
2018-12-19T05:29:28.410Z,65.2
2018-12-19T05:30:28.338Z,64.8
2018-12-19T05:31:28.244Z,64
2018-12-19T05:32:28.149Z,64
2018-12-19T05:33:28.043Z,64
2018-12-19T05:34:27.941Z,64.2
2018-12-19T05:35:28.249Z,64.5
2018-12-19T05:36:33.636Z,64.8
2018-12-19T05:37:33.548Z,64.7
2018-12-19T05:38:33.434Z,65.1
2018-12-19T05:39:33.308Z,65.1
2018-12-19T05:40:33.188Z,65.4
2018-12-19T05:41:33.602Z,65.8
2018-12-19T05:42:33.485Z,65.4
2018-12-19T05:43:33.396Z,65
2018-12-19T05:44:33.292Z,65.1
2018-12-19T05:45:33.614Z,65.5
2018-12-19T05:46:33.542Z,65.2
2018-12-19T05:47:33.440Z,64.5
2018-12-19T05:48:33.343Z,63.6
2018-12-19T05:55:32.507Z,60.6
2018-12-19T05:56:32.390Z,61.6
2018-12-19T05:57:32.321Z,62.1
2018-12-19T05:58:32.209Z,62.1
2018-12-19T05:59:32.130Z,61.9
2018-12-19T06:00:32.023Z,62.1
2018-12-19T06:01:31.945Z,62
2018-12-19T06:02:31.846Z,62
2018-12-19T06:03:31.746Z,62.2
2018-12-19T06:04:31.633Z,62.2
2018-12-19T06:05:31.978Z,62.1
2018-12-19T06:06:31.861Z,62.3
2018-12-19T06:07:31.741Z,62
2018-12-19T06:08:34.296Z,62.4
2018-12-19T06:09:34.193Z,61.9
2018-12-19T06:10:34.085Z,62
2018-12-19T06:11:33.974Z,62
2018-12-19T06:12:33.846Z,62.1
2018-12-19T06:13:33.810Z,62.2
2018-12-19T06:14:33.693Z,62.5
2018-12-19T06:15:34.218Z,62.3
2018-12-19T06:16:34.095Z,62.5
2018-12-19T06:17:33.983Z,62.8
2018-12-19T06:18:33.894Z,62.6
2018-12-19T06:19:33.800Z,62.2
2018-12-19T06:20:33.720Z,62.3
2018-12-19T06:21:33.609Z,62.6
2018-12-19T06:22:33.491Z,62.6
2018-12-19T06:23:33.379Z,62.4
2018-12-19T06:24:34.940Z,62.7
2018-12-19T06:25:35.272Z,63.1
2018-12-19T06:26:35.212Z,62.6
2018-12-19T06:27:35.108Z,63
2018-12-19T06:28:35.000Z,62.9
2018-12-19T06:29:34.888Z,63.2
2018-12-19T06:30:34.774Z,63.4
2018-12-19T06:31:34.705Z,63.2
2018-12-19T06:32:34.622Z,62.8
2018-12-19T06:33:34.506Z,62.8
2018-12-19T06:34:34.610Z,62.9
2018-12-19T06:35:34.914Z,63.1
2018-12-19T06:36:34.812Z,62.9
2018-12-19T06:37:34.720Z,63
2018-12-19T06:38:34.610Z,62.8
2018-12-19T06:39:34.508Z,62.2
2018-12-19T06:40:34.380Z,62
2018-12-19T06:41:34.299Z,62.1
2018-12-19T06:42:34.202Z,61.8
2018-12-19T06:43:34.108Z,61.3
2018-12-19T06:44:33.991Z,61.7
2018-12-19T06:45:34.306Z,62.1
2018-12-19T06:46:34.194Z,62
2018-12-19T06:47:34.082Z,61.8
2018-12-19T06:48:33.984Z,62
2018-12-19T06:49:33.880Z,61.8
2018-12-19T06:50:33.817Z,62
2018-12-19T06:51:33.726Z,61.8
2018-12-19T06:52:33.618Z,62
2018-12-19T06:53:33.552Z,62
2018-12-19T06:54:33.466Z,62.7
2018-12-19T06:55:33.762Z,62.9
2018-12-19T06:56:33.662Z,62.6
2018-12-19T06:57:33.536Z,63
2018-12-19T06:58:33.436Z,63.2
2018-12-19T06:59:33.330Z,62.7
2018-12-19T07:00:33.204Z,62.7
2018-12-19T07:01:33.090Z,62.4
2018-12-19T07:02:32.984Z,62.6
2018-12-19T07:03:32.870Z,63.2
2018-12-19T07:04:32.764Z,63.2
2018-12-19T07:05:33.066Z,63.3
2018-12-19T07:06:32.969Z,63.3
2018-12-19T07:07:32.882Z,62.5
2018-12-19T07:08:32.789Z,62.2
2018-12-19T07:15:31.728Z,60.5
2018-12-19T07:16:31.622Z,60.7
2018-12-19T07:17:31.535Z,60.9
2018-12-19T07:18:31.420Z,61.1
2018-12-19T07:19:31.335Z,61.1
2018-12-19T07:20:31.257Z,61.1
2018-12-19T07:21:31.149Z,61.4
2018-12-19T07:22:31.074Z,61.9
2018-12-19T07:23:30.974Z,62
2018-12-19T07:24:30.908Z,61.7
2018-12-19T07:25:31.225Z,61.3
2018-12-19T07:26:31.109Z,61.2
2018-12-19T07:27:30.997Z,61.5
2018-12-19T07:28:30.909Z,61.8
2018-12-19T07:29:30.812Z,61.8
2018-12-19T07:30:30.722Z,61.8
2018-12-19T07:31:30.626Z,61.8
2018-12-19T07:32:30.522Z,61.8
2018-12-19T07:33:30.401Z,61.1
2018-12-19T07:34:30.312Z,61.2
2018-12-19T07:35:30.730Z,61.1
2018-12-19T07:36:30.627Z,61.8
2018-12-19T07:37:30.583Z,61.7
2018-12-19T07:38:30.493Z,61.6
2018-12-19T07:39:30.386Z,61.8
2018-12-19T07:40:30.301Z,61.8
2018-12-19T07:41:30.192Z,61.6
2018-12-19T07:42:30.102Z,61.6
2018-12-19T07:43:30.269Z,61.6
2018-12-19T07:44:30.147Z,61.6
2018-12-19T07:45:30.507Z,61.6
2018-12-19T07:46:30.399Z,61.4
2018-12-19T07:47:30.322Z,62.7
2018-12-19T07:48:30.214Z,62.1
2018-12-19T07:49:30.102Z,61.9
2018-12-19T07:50:29.988Z,61.8
2018-12-19T07:51:30.129Z,62.3
2018-12-19T07:52:30.026Z,62.3
2018-12-19T07:53:29.946Z,62.2
2018-12-19T07:54:29.831Z,62
2018-12-19T07:55:30.217Z,62.4
2018-12-19T07:56:30.135Z,62
2018-12-19T07:57:30.022Z,62.3
2018-12-19T07:58:29.919Z,62.7
2018-12-19T07:59:29.819Z,62.3
2018-12-19T08:00:29.735Z,62.1
2018-12-19T08:01:29.860Z,61.9
2018-12-19T08:02:29.790Z,61.8
2018-12-19T08:03:29.669Z,61.8
2018-12-19T08:04:29.567Z,62.1
2018-12-19T08:05:30.124Z,62
2018-12-19T08:06:31.053Z,61.8
2018-12-19T08:07:30.977Z,61.9
2018-12-19T08:08:30.847Z,61.9
2018-12-19T08:09:30.753Z,61.8
2018-12-19T08:10:30.643Z,62
2018-12-19T08:11:30.545Z,62.4
2018-12-19T08:12:36.837Z,62.6
2018-12-19T08:13:36.723Z,62.1
2018-12-19T08:14:36.652Z,62.2
2018-12-19T08:15:37.194Z,62.4
2018-12-19T08:16:37.102Z,62.7
2018-12-19T08:17:37.011Z,62.8
2018-12-19T08:18:37.128Z,62.3
2018-12-19T08:19:37.024Z,62.3
2018-12-19T08:20:36.912Z,62.5
2018-12-19T08:21:36.810Z,62.5
2018-12-19T08:22:36.741Z,62.9
2018-12-19T08:23:36.644Z,62.9
2018-12-19T08:24:36.539Z,63.1
2018-12-19T08:25:36.874Z,63.1
2018-12-19T08:26:36.797Z,62.9
2018-12-19T08:27:36.737Z,62.5
2018-12-19T08:28:36.664Z,62
2018-12-19T08:29:36.559Z,61.9
2018-12-19T08:30:36.453Z,61.1
2018-12-19T08:31:36.344Z,60.5
2018-12-19T08:34:36.705Z,59.8
2018-12-19T08:36:37.013Z,59.5
2018-12-19T08:37:36.893Z,59.3
2018-12-19T08:38:36.783Z,58.9
2018-12-19T08:39:36.955Z,59
2018-12-19T08:40:36.845Z,59.1
2018-12-19T08:42:36.484Z,59.4
2018-12-19T08:43:36.399Z,59.4
2018-12-19T08:44:36.324Z,59.5
2018-12-19T08:45:36.617Z,59.4
2018-12-19T08:46:36.515Z,59.3
2018-12-19T08:47:36.400Z,59.3
2018-12-19T08:48:36.289Z,59
2018-12-19T08:49:36.192Z,59.4
2018-12-19T08:50:36.085Z,59.2
2018-12-19T08:51:35.975Z,59.1
2018-12-19T08:52:35.857Z,59.1
2018-12-19T08:53:35.774Z,59.6
2018-12-19T08:54:36.688Z,59.4
2018-12-19T08:55:37.013Z,59.1
2018-12-19T08:56:36.895Z,59
2018-12-19T08:57:36.776Z,58.7
2018-12-19T08:58:36.651Z,59.2
2018-12-19T08:59:36.543Z,59.3
2018-12-19T09:00:36.467Z,59.4
2018-12-19T09:01:36.369Z,59.4
2018-12-19T09:02:36.252Z,59
2018-12-19T09:03:36.141Z,59.2
2018-12-19T09:04:36.041Z,59.3
2018-12-19T09:05:36.455Z,59.5
2018-12-19T09:06:36.339Z,59.3
2018-12-19T09:07:36.228Z,59.4
2018-12-19T09:08:36.115Z,59.6
2018-12-19T09:09:35.998Z,59.4
2018-12-19T09:10:35.918Z,59.6
2018-12-19T09:11:36.051Z,59.6
2018-12-19T09:12:36.012Z,59.7
2018-12-19T09:13:35.921Z,59.7
2018-12-19T09:14:35.816Z,59.8
2018-12-19T09:15:36.177Z,59.9
2018-12-19T09:16:36.095Z,59.8
2018-12-19T09:17:36.543Z,60.1
2018-12-19T09:18:36.450Z,60
2018-12-19T09:19:36.357Z,60
2018-12-19T09:20:36.261Z,60.4
2018-12-19T09:21:36.164Z,60.9
2018-12-19T09:22:36.047Z,60.9
2018-12-19T09:23:36.163Z,61.1
2018-12-19T09:24:36.060Z,61.3
2018-12-19T09:25:36.621Z,62
2018-12-19T09:26:36.547Z,61.8
2018-12-19T09:27:36.439Z,61.5
2018-12-19T09:28:36.327Z,61.1
2018-12-19T09:29:36.231Z,60.2
2018-12-19T09:30:36.157Z,60.6
2018-12-19T09:31:36.048Z,60.7
2018-12-19T09:33:35.701Z,60.3
2018-12-19T09:34:35.591Z,60.1
2018-12-19T09:35:35.915Z,59.8
2018-12-19T09:36:35.820Z,59.8
2018-12-19T09:37:36.113Z,59.6
2018-12-19T09:38:36.019Z,59.5
2018-12-19T09:39:35.919Z,59.4
2018-12-19T09:40:36.033Z,59.5
2018-12-19T09:41:35.943Z,59.5
2018-12-19T09:42:35.850Z,59.5
2018-12-19T09:43:35.960Z,59.5
2018-12-19T09:44:35.860Z,59.6
2018-12-19T09:45:36.181Z,60
2018-12-19T09:46:36.070Z,59.2
2018-12-19T09:47:35.970Z,59.6
2018-12-19T09:48:35.880Z,59.5
2018-12-19T09:49:35.785Z,59.5
2018-12-19T09:50:35.701Z,59.5
2018-12-19T09:51:35.823Z,59.3
2018-12-19T09:52:35.948Z,59
2018-12-19T09:53:35.887Z,59.2
2018-12-19T09:54:35.802Z,58.9
2018-12-19T09:55:36.127Z,59.1
2018-12-19T09:56:36.033Z,59.1
2018-12-19T09:57:36.004Z,59.2
2018-12-19T09:58:35.902Z,58.8
2018-12-19T09:59:35.875Z,58.7
2018-12-19T10:00:35.789Z,58.9
2018-12-19T10:01:35.680Z,58.9
2018-12-19T10:02:35.589Z,59.1
2018-12-19T10:03:35.730Z,59
2018-12-19T10:04:35.632Z,59
2018-12-19T10:05:35.947Z,58.8
2018-12-19T10:06:35.819Z,59.2
2018-12-19T10:07:35.727Z,59
2018-12-19T10:08:35.614Z,59.2
2018-12-19T10:09:35.530Z,59
2018-12-19T10:10:35.411Z,59.1
2018-12-19T10:11:35.312Z,58.6
2018-12-19T10:12:35.496Z,58.8
2018-12-19T10:13:35.385Z,59
2018-12-19T10:14:35.295Z,59
2018-12-19T10:15:35.620Z,59
2018-12-19T10:16:35.528Z,59
2018-12-19T10:17:41.707Z,59
2018-12-19T10:18:41.586Z,58.8
2018-12-19T10:19:41.500Z,58.9
2018-12-19T10:20:41.386Z,58.9
2018-12-19T10:21:42.309Z,59.2
2018-12-19T10:22:42.192Z,59.1
2018-12-19T10:23:42.101Z,59.3
2018-12-19T10:24:42.029Z,59.4
2018-12-19T10:25:42.381Z,59.8
2018-12-19T10:26:42.280Z,59.9
2018-12-19T10:27:42.253Z,60
2018-12-19T10:28:42.138Z,60.3
2018-12-19T10:29:42.072Z,60.3
2018-12-19T10:30:41.964Z,60.6
2018-12-19T10:31:41.841Z,61
2018-12-19T10:32:41.749Z,60.7
2018-12-19T10:33:41.639Z,60.9
2018-12-19T10:34:41.541Z,60.9
2018-12-19T10:35:41.891Z,61.4
2018-12-19T10:36:41.797Z,61.4
2018-12-19T10:37:41.748Z,61.5
2018-12-19T10:38:41.751Z,61.8
2018-12-19T10:39:41.783Z,61.9
2018-12-19T10:40:41.708Z,62
2018-12-19T10:41:41.601Z,62.2
2018-12-19T10:42:41.508Z,61.9
2018-12-19T10:43:42.444Z,62
2018-12-19T10:44:42.353Z,61.2
2018-12-19T10:45:42.691Z,61.5
2018-12-19T10:46:42.588Z,61.5
2018-12-19T10:47:42.483Z,61.5
2018-12-19T10:48:42.417Z,61.6
2018-12-19T10:49:42.320Z,61.8
2018-12-19T10:50:42.224Z,61.9
2018-12-19T10:51:42.133Z,61.9
2018-12-19T10:52:42.265Z,61.7
2018-12-19T10:53:43.395Z,61.6
2018-12-19T10:54:43.334Z,62
2018-12-19T10:55:43.893Z,62.2
2018-12-19T10:56:43.803Z,62.3
2018-12-19T10:57:43.703Z,62.2
2018-12-19T10:58:43.597Z,61.7
2018-12-19T10:59:43.485Z,62
2018-12-19T11:00:43.429Z,61.8
2018-12-19T11:01:43.583Z,62.1
2018-12-19T11:02:43.467Z,61.7
2018-12-19T11:03:43.417Z,61.6
2018-12-19T11:04:43.323Z,61.7
2018-12-19T11:05:43.653Z,61.7
2018-12-19T11:06:43.551Z,62
2018-12-19T11:07:43.463Z,61.6
2018-12-19T11:08:43.366Z,61.8
2018-12-19T11:09:44.282Z,61.8
2018-12-19T11:10:45.784Z,61
2018-12-19T11:11:45.692Z,61
2018-12-19T11:12:45.601Z,60.6
2018-12-19T11:13:45.510Z,61
2018-12-19T11:15:45.573Z,62.8
2018-12-19T11:16:45.530Z,62.1
2018-12-19T11:17:45.693Z,61.7
2018-12-19T11:18:45.584Z,61.6
2018-12-19T11:19:45.481Z,60.9
2018-12-19T11:20:45.389Z,60.7
2018-12-19T11:21:45.287Z,60.4
2018-12-19T11:22:45.195Z,60.7
2018-12-19T11:23:47.912Z,60.7
2018-12-19T11:24:47.801Z,60.7
2018-12-19T11:25:48.925Z,61
2018-12-19T11:26:48.827Z,60.8
2018-12-19T11:27:48.735Z,61
2018-12-19T11:28:48.630Z,61
2018-12-19T11:29:49.231Z,61.2
2018-12-19T11:30:49.114Z,60.7
2018-12-19T11:31:48.988Z,61.4
2018-12-19T11:32:48.918Z,61.6
2018-12-19T11:33:48.829Z,61.5
2018-12-19T11:34:48.735Z,61.6
2018-12-19T11:35:49.054Z,61.8
2018-12-19T11:36:48.970Z,61.6
2018-12-19T11:37:48.873Z,61.7
2018-12-19T11:38:48.761Z,61.9
2018-12-19T11:39:48.647Z,61.8
2018-12-19T11:40:48.564Z,62
2018-12-19T11:41:48.663Z,61.9
2018-12-19T11:42:48.567Z,61.4
2018-12-19T11:43:48.459Z,61.5
2018-12-19T11:44:48.348Z,61.4
2018-12-19T11:45:48.683Z,61.8
2018-12-19T11:46:48.580Z,61.5
2018-12-19T11:47:48.487Z,61.5
2018-12-19T11:48:48.366Z,61.5
2018-12-19T11:49:48.252Z,61.4
2018-12-19T11:50:48.150Z,61.8
2018-12-19T11:51:48.030Z,61.1
2018-12-19T11:52:47.948Z,61.6
2018-12-19T11:53:47.850Z,61.9
2018-12-19T11:54:47.738Z,61.2
2018-12-19T11:55:48.098Z,60.9
2018-12-19T11:56:47.990Z,61.3
2018-12-19T11:57:47.914Z,61.4
2018-12-19T11:58:47.807Z,61.5
2018-12-19T11:59:47.757Z,61.5
2018-12-19T12:00:47.656Z,61.3
2018-12-19T12:01:47.556Z,61.5
2018-12-19T12:02:47.474Z,61.1
2018-12-19T12:03:47.388Z,61.7
2018-12-19T12:04:47.282Z,61.7
2018-12-19T12:05:47.590Z,61.5
2018-12-19T12:06:47.476Z,61.7
2018-12-19T12:07:47.375Z,61.7
2018-12-19T12:08:47.520Z,61.7
2018-12-19T12:09:47.653Z,61.8
2018-12-19T12:10:48.578Z,62
2018-12-19T12:11:48.491Z,61.8
2018-12-19T12:12:48.381Z,62.1
2018-12-19T12:13:48.285Z,63.2
2018-12-19T12:14:48.198Z,62.6
2018-12-19T12:15:48.510Z,62
2018-12-19T12:16:48.407Z,62.8
2018-12-19T12:17:48.358Z,62.9
2018-12-19T12:18:48.284Z,63.2
2018-12-19T12:19:48.196Z,62.7
2018-12-19T12:20:48.141Z,63.4
2018-12-19T12:21:48.031Z,62.6
2018-12-19T12:22:47.964Z,62.3
2018-12-19T12:23:48.202Z,62.3
2018-12-19T12:24:48.113Z,62.1
2018-12-19T12:25:48.455Z,62.2
2018-12-19T12:26:48.366Z,62.2
2018-12-19T12:27:48.285Z,62.3
2018-12-19T12:28:48.193Z,62.1
2018-12-19T12:29:48.120Z,61.8
2018-12-19T12:30:48.014Z,61.6
2018-12-19T12:31:47.910Z,61.2
2018-12-19T12:32:47.800Z,60.9
2018-12-19T12:33:47.681Z,61.2
2018-12-19T12:34:47.566Z,60.8
2018-12-19T12:35:47.908Z,60.6
2018-12-19T12:36:47.843Z,60
2018-12-19T12:37:47.738Z,59.4
2018-12-19T12:38:47.641Z,59.9
2018-12-19T12:39:47.534Z,59.7
2018-12-19T12:40:47.461Z,59.5
2018-12-19T12:41:53.066Z,58.5
2018-12-19T12:42:52.995Z,59
2018-12-19T12:43:52.925Z,58.7
2018-12-19T12:44:53.130Z,58.7
2018-12-19T12:45:53.534Z,58.8
2018-12-19T12:46:53.434Z,58.9
2018-12-19T12:47:53.341Z,58.8
2018-12-19T12:48:53.263Z,58.7
2018-12-19T12:49:53.172Z,58.5
2018-12-19T12:50:53.087Z,58.9
2018-12-19T12:51:52.997Z,59
2018-12-19T12:52:52.899Z,59
2018-12-19T12:53:52.805Z,59
2018-12-19T12:54:52.694Z,59.2
2018-12-19T12:55:53.111Z,59.5
2018-12-19T12:56:53.003Z,59.2
2018-12-19T12:57:52.986Z,59.3
2018-12-19T12:58:52.860Z,58.7
2018-12-19T12:59:52.744Z,59
2018-12-19T13:00:52.620Z,59.2
2018-12-19T13:01:52.524Z,59
2018-12-19T13:02:52.425Z,57.7
2018-12-19T13:03:52.314Z,58.7
2018-12-19T13:04:52.201Z,58.4
2018-12-19T13:05:52.555Z,58.6
2018-12-19T13:06:52.480Z,58.5
2018-12-19T13:07:52.373Z,58.2
2018-12-19T13:08:52.249Z,58.3
2018-12-19T13:09:52.197Z,58.3
2018-12-19T13:10:52.083Z,58.3
2018-12-19T13:11:51.979Z,58.6
2018-12-19T13:12:58.511Z,58.6
2018-12-19T13:13:58.422Z,58.8
2018-12-19T13:14:58.304Z,59.1
2018-12-19T13:15:58.639Z,59
2018-12-19T13:16:58.520Z,59.2
2018-12-19T13:17:58.431Z,59.5
2018-12-19T13:18:58.332Z,59
2018-12-19T13:19:58.219Z,59.2
2018-12-19T13:20:58.136Z,58.5
2018-12-19T13:21:58.018Z,59
2018-12-19T13:22:57.929Z,58.2
2018-12-19T13:23:57.831Z,58.1
2018-12-19T13:24:57.731Z,58.6
2018-12-19T13:25:58.031Z,58.7
2018-12-19T13:26:57.937Z,58.2
2018-12-19T13:27:57.879Z,58.4
2018-12-19T13:28:57.785Z,58.3
2018-12-19T13:29:57.677Z,58.5
2018-12-19T13:30:57.576Z,58.8
2018-12-19T13:31:57.465Z,58.4
2018-12-19T13:32:57.351Z,58.3
2018-12-19T13:33:57.243Z,58.5
2018-12-19T13:34:57.151Z,58.5
2018-12-19T13:35:57.739Z,58.5
2018-12-19T13:36:57.656Z,58.7
2018-12-19T13:37:57.567Z,59
2018-12-19T13:38:57.505Z,58.6
2018-12-19T13:39:57.417Z,58.9
2018-12-19T13:40:57.310Z,59
2018-12-19T13:41:57.231Z,59.4
2018-12-19T13:42:57.137Z,59.3
2018-12-19T13:43:57.068Z,59.3
2018-12-19T13:44:57.985Z,59.4
2018-12-19T13:45:58.308Z,59.6
2018-12-19T13:47:01.152Z,59.5
2018-12-19T13:48:01.044Z,59.3
2018-12-19T13:49:00.972Z,59.4
2018-12-19T13:50:00.935Z,59.5
2018-12-19T13:51:00.837Z,59.3
2018-12-19T13:52:00.718Z,59.4
2018-12-19T13:53:00.882Z,59.4
2018-12-19T13:54:00.779Z,58.9
2018-12-19T13:55:00.683Z,59.2
2018-12-19T13:56:01.053Z,59.2
2018-12-19T13:57:00.931Z,59.1
2018-12-19T13:58:07.836Z,59.4
2018-12-19T13:59:07.734Z,59.5
2018-12-19T14:00:07.619Z,59.5
2018-12-19T14:01:07.523Z,59.6
2018-12-19T14:02:07.486Z,59.5
2018-12-19T14:03:07.383Z,59.5
2018-12-19T14:04:07.283Z,59.7
2018-12-19T14:05:07.161Z,59.8
2018-12-19T14:06:07.547Z,59.6
2018-12-19T14:07:07.459Z,60.1
2018-12-19T14:08:07.343Z,59.4
2018-12-19T14:09:07.233Z,59.7
2018-12-19T14:10:07.132Z,60
2018-12-19T14:11:07.015Z,59.8
2018-12-19T14:12:13.060Z,60
2018-12-19T14:13:12.941Z,59.4
2018-12-19T14:14:12.853Z,59.4
2018-12-19T14:15:12.742Z,59.4
2018-12-19T14:16:13.045Z,59.3
2018-12-19T14:17:13.023Z,58.9
2018-12-19T14:18:12.931Z,58.8
2018-12-19T14:19:12.869Z,58.8
2018-12-19T14:20:12.793Z,59.3
2018-12-19T14:21:12.688Z,59
2018-12-19T14:22:12.585Z,59.1
2018-12-19T14:23:12.487Z,59
2018-12-19T14:24:12.384Z,58.7
2018-12-19T14:25:12.281Z,58.4
2018-12-19T14:26:12.621Z,58.5
2018-12-19T14:27:12.529Z,58.6
2018-12-19T14:28:12.425Z,58.8
2018-12-19T14:29:12.331Z,58.8
2018-12-19T14:30:12.233Z,58.7
2018-12-19T14:31:12.148Z,58.9
2018-12-19T14:32:12.039Z,58.8
2018-12-19T14:33:11.945Z,59
2018-12-19T14:34:11.926Z,58.9
2018-12-19T14:35:11.835Z,59
2018-12-19T14:36:12.173Z,59.1
2018-12-19T14:37:12.075Z,59
2018-12-19T14:38:12.274Z,59.2
2018-12-19T14:39:12.207Z,59.4
2018-12-19T14:40:12.100Z,59
2018-12-19T14:41:12.000Z,59.2
2018-12-19T14:42:11.887Z,59.1
2018-12-19T14:43:11.788Z,59.3
2018-12-19T14:44:11.677Z,59.6
2018-12-19T14:45:11.585Z,59.9
2018-12-19T14:46:12.157Z,60.1
2018-12-19T14:47:12.063Z,60.2
2018-12-19T14:48:11.959Z,59.8
2018-12-19T14:49:14.775Z,60
2018-12-19T14:50:14.707Z,60
2018-12-19T14:51:14.612Z,59.9
2018-12-19T14:52:14.505Z,59.7
2018-12-19T14:53:14.395Z,59.6
2018-12-19T14:54:14.304Z,59.5
2018-12-19T14:55:14.226Z,59.6
2018-12-19T14:56:14.569Z,59.4
2018-12-19T14:57:14.491Z,59.5
2018-12-19T14:58:14.378Z,59.4
2018-12-19T14:59:14.269Z,59.3
2018-12-19T15:00:14.186Z,59.4
2018-12-19T15:01:14.077Z,59.4
2018-12-19T15:02:14.173Z,59.4
2018-12-19T15:03:14.051Z,59.5
2018-12-19T15:04:13.951Z,59.7
2018-12-19T15:05:13.854Z,59.6
2018-12-19T15:06:14.187Z,59.6
2018-12-19T15:07:14.077Z,59.7
2018-12-19T15:08:13.979Z,59.8
2018-12-19T15:09:13.881Z,59.8
2018-12-19T15:10:13.783Z,59.8
2018-12-19T15:11:13.665Z,59.7
2018-12-19T15:12:13.570Z,59.7
2018-12-19T15:13:13.449Z,59.6
2018-12-19T15:14:13.357Z,59.9
2018-12-19T15:15:13.261Z,60
2018-12-19T15:16:13.623Z,60
2018-12-19T15:17:14.647Z,60.3
2018-12-19T15:18:14.535Z,60.3
2018-12-19T15:19:14.444Z,60.3
2018-12-19T15:20:14.415Z,60.7
2018-12-19T15:21:15.561Z,60.9
2018-12-19T15:22:15.453Z,60.9
2018-12-19T15:23:15.353Z,61.1
2018-12-19T15:24:15.249Z,61.4
2018-12-19T15:25:15.141Z,61.4
2018-12-19T15:26:15.490Z,61.4
2018-12-19T15:27:17.931Z,61.5
2018-12-19T15:28:17.840Z,61.2
2018-12-19T15:29:17.976Z,61
2018-12-19T15:30:17.932Z,60.9
2018-12-19T15:31:17.844Z,60.7
2018-12-19T15:32:17.768Z,60.7
2018-12-19T15:33:17.655Z,59.7
2018-12-19T15:34:17.565Z,60.2
2018-12-19T15:35:17.453Z,60.2
2018-12-19T15:36:17.765Z,61
2018-12-19T15:37:17.693Z,61.1
2018-12-19T15:38:17.575Z,60.9
2018-12-19T15:39:17.738Z,60.7
2018-12-19T15:40:17.735Z,61
2018-12-19T15:41:17.638Z,61.2
2018-12-19T15:42:17.553Z,61
2018-12-19T15:43:18.463Z,60.7
2018-12-19T15:44:18.369Z,61.1
2018-12-19T15:45:18.511Z,62.4
2018-12-19T15:46:18.847Z,61.9
2018-12-19T15:47:18.781Z,62.1
2018-12-19T15:48:18.906Z,62.5